EZY69RQ EGPH-EKCH
Flight info
| Callsign | EZY69RQ |
|---|---|
| Flight time | N/A |
| Altitude | 39000 |
| Route | TLA6C TLA Y96 HAVEN DCT OTBUN DCT ERLOT DCT GIVEM DCT SURAT DCT PETIL DCT TESPI TESPI4C |
| Aircraft | A320/M-SDE3FGHIRWY/LB1 |
Departure
| Time | 2026-05-04 18:44 |
|---|---|
| Airport | Edinburgh Airport (EGPH) |
Arrival
| Time | N/A |
|---|---|
| Airport | Copenhagen Kastrup Airport (EKCH) |
| Time | Latitude | Longitude | Altitude | Speed | Heading |
|---|---|---|---|---|---|
| 2026-05-04 17:26 | 55.94878 | -3.36545 | 109 ft | 0 kts | 149° |
| 2026-05-04 18:29 | 55.94888 | -3.36556 | 107 ft | 4 kts | 149° |
| 2026-05-04 18:30 | 55.94928 | -3.36616 | 107 ft | 4 kts | 106° |
| 2026-05-04 18:30 | 55.94927 | -3.36653 | 107 ft | 1 kts | 59° |
| 2026-05-04 18:30 | 55.94925 | -3.36660 | 108 ft | 0 kts | 59° |
| 2026-05-04 18:33 | 55.94934 | -3.36634 | 110 ft | 5 kts | 59° |
| 2026-05-04 18:33 | 55.94956 | -3.36566 | 110 ft | 8 kts | 59° |
| 2026-05-04 18:34 | 55.94987 | -3.36477 | 110 ft | 9 kts | 58° |
| 2026-05-04 18:34 | 55.95025 | -3.36393 | 110 ft | 9 kts | 28° |
| 2026-05-04 18:34 | 55.95096 | -3.36378 | 111 ft | 15 kts | 34° |
| 2026-05-04 18:34 | 55.95157 | -3.36209 | 109 ft | 16 kts | 57° |
| 2026-05-04 18:35 | 55.95214 | -3.36039 | 106 ft | 16 kts | 58° |
| 2026-05-04 18:35 | 55.95272 | -3.35872 | 107 ft | 15 kts | 59° |
| 2026-05-04 18:35 | 55.95321 | -3.35727 | 106 ft | 13 kts | 59° |
| 2026-05-04 18:35 | 55.95362 | -3.35603 | 110 ft | 10 kts | 59° |
| 2026-05-04 18:36 | 55.95394 | -3.35511 | 111 ft | 4 kts | 58° |
| 2026-05-04 18:36 | 55.95409 | -3.35466 | 109 ft | 4 kts | 59° |
| 2026-05-04 18:36 | 55.95426 | -3.35418 | 109 ft | 5 kts | 53° |
| 2026-05-04 18:36 | 55.95462 | -3.35401 | 109 ft | 6 kts | 343° |
| 2026-05-04 18:37 | 55.95498 | -3.35437 | 108 ft | 1 kts | 330° |
| 2026-05-04 18:37 | 55.95498 | -3.35438 | 108 ft | 0 kts | 330° |
| 2026-05-04 18:40 | 55.95503 | -3.35443 | 106 ft | 2 kts | 329° |
| 2026-05-04 18:40 | 55.95537 | -3.35481 | 108 ft | 9 kts | 328° |
| 2026-05-04 18:40 | 55.95561 | -3.35586 | 108 ft | 11 kts | 249° |
| 2026-05-04 18:40 | 55.95552 | -3.35616 | 109 ft | 0 kts | 240° |
| 2026-05-04 18:43 | 55.95551 | -3.35620 | 107 ft | 3 kts | 240° |
| 2026-05-04 18:43 | 55.95447 | -3.35931 | 106 ft | 67 kts | 239° |
| 2026-05-04 18:43 | 55.95087 | -3.36992 | 114 ft | 130 kts | 239° |
| 2026-05-04 18:44 | 55.94557 | -3.38576 | 418 ft | 154 kts | 240° |
| 2026-05-04 18:44 | 55.94370 | -3.39124 | 686 ft | 153 kts | 241° |
| 2026-05-04 18:44 | 55.93409 | -3.41877 | 1778 ft | 171 kts | 240° |
| 2026-05-04 18:44 | 55.92748 | -3.43788 | 2261 ft | 190 kts | 241° |
| 2026-05-04 18:45 | 55.92038 | -3.45851 | 2940 ft | 198 kts | 241° |
| 2026-05-04 18:45 | 55.91308 | -3.47947 | 3719 ft | 200 kts | 241° |
| 2026-05-04 18:45 | 55.90521 | -3.50011 | 4479 ft | 205 kts | 231° |
| 2026-05-04 18:45 | 55.89285 | -3.51376 | 5173 ft | 218 kts | 197° |
| 2026-05-04 18:46 | 55.87775 | -3.51537 | 5913 ft | 222 kts | 184° |
| 2026-05-04 18:46 | 55.86177 | -3.51586 | 6415 ft | 239 kts | 185° |
| 2026-05-04 18:46 | 55.84411 | -3.51686 | 6740 ft | 268 kts | 185° |
| 2026-05-04 18:46 | 55.82505 | -3.51802 | 7501 ft | 278 kts | 184° |
| 2026-05-04 18:47 | 55.80554 | -3.51742 | 8421 ft | 285 kts | 175° |
| 2026-05-04 18:47 | 55.78612 | -3.50873 | 9415 ft | 290 kts | 165° |
| 2026-05-04 18:47 | 55.76664 | -3.49784 | 10265 ft | 300 kts | 166° |
| 2026-05-04 18:47 | 55.74591 | -3.48654 | 10632 ft | 323 kts | 166° |
| 2026-05-04 18:48 | 55.72395 | -3.47470 | 11287 ft | 334 kts | 166° |
| 2026-05-04 18:48 | 55.70157 | -3.46258 | 12128 ft | 339 kts | 166° |
| 2026-05-04 18:48 | 55.67883 | -3.45022 | 12979 ft | 344 kts | 166° |
| 2026-05-04 18:48 | 55.65581 | -3.43770 | 13828 ft | 349 kts | 166° |
| 2026-05-04 18:49 | 55.63249 | -3.42501 | 14581 ft | 353 kts | 166° |
| 2026-05-04 18:49 | 55.60887 | -3.41216 | 15315 ft | 357 kts | 166° |
| 2026-05-04 18:49 | 55.58500 | -3.39923 | 16030 ft | 362 kts | 166° |
| 2026-05-04 18:49 | 55.56072 | -3.38608 | 16726 ft | 367 kts | 165° |
| 2026-05-04 18:50 | 55.53738 | -3.36861 | 16978 ft | 373 kts | 152° |
| 2026-05-04 18:50 | 55.51674 | -3.34075 | 17040 ft | 376 kts | 136° |
| 2026-05-04 18:50 | 55.50067 | -3.30432 | 17044 ft | 378 kts | 121° |
| 2026-05-04 18:50 | 55.49019 | -3.26189 | 17042 ft | 378 kts | 106° |
| 2026-05-04 18:51 | 55.48481 | -3.21657 | 17063 ft | 379 kts | 100° |
| 2026-05-04 18:51 | 55.47998 | -3.17066 | 17720 ft | 383 kts | 100° |
| 2026-05-04 18:51 | 55.47504 | -3.12440 | 18445 ft | 386 kts | 100° |